sensor_id;sensor_type;location;lat;lon;timestamp;P1;durP1;ratioP1;P2;durP2;ratioP2
79137;SDS011;68544;45.566;10.238;2023-04-23T00:00:36;7.50;;;6.50;;
79137;SDS011;68544;45.566;10.238;2023-04-23T00:03:06;8.13;;;7.10;;
79137;SDS011;68544;45.566;10.238;2023-04-23T00:05:37;7.93;;;7.10;;
79137;SDS011;68544;45.566;10.238;2023-04-23T00:08:03;7.32;;;6.10;;
79137;SDS011;68544;45.566;10.238;2023-04-23T00:10:29;8.13;;;6.20;;
79137;SDS011;68544;45.566;10.238;2023-04-23T00:12:55;8.57;;;6.43;;
79137;SDS011;68544;45.566;10.238;2023-04-23T00:15:21;5.72;;;5.22;;
79137;SDS011;68544;45.566;10.238;2023-04-23T00:17:46;6.90;;;6.20;;
79137;SDS011;68544;45.566;10.238;2023-04-23T00:20:13;8.40;;;5.35;;
79137;SDS011;68544;45.566;10.238;2023-04-23T00:22:40;7.15;;;5.15;;
79137;SDS011;68544;45.566;10.238;2023-04-23T00:25:06;7.28;;;5.75;;
79137;SDS011;68544;45.566;10.238;2023-04-23T00:27:32;6.65;;;5.18;;
79137;SDS011;68544;45.566;10.238;2023-04-23T00:29:57;9.27;;;4.67;;
79137;SDS011;68544;45.566;10.238;2023-04-23T00:32:23;7.90;;;4.73;;
79137;SDS011;68544;45.566;10.238;2023-04-23T00:34:48;5.40;;;4.90;;
79137;SDS011;68544;45.566;10.238;2023-04-23T00:37:13;5.10;;;4.60;;
79137;SDS011;68544;45.566;10.238;2023-04-23T00:42:05;7.03;;;5.20;;
79137;SDS011;68544;45.566;10.238;2023-04-23T00:44:36;7.72;;;5.20;;
79137;SDS011;68544;45.566;10.238;2023-04-23T00:47:01;7.80;;;5.20;;
79137;SDS011;68544;45.566;10.238;2023-04-23T00:49:27;7.33;;;5.50;;
79137;SDS011;68544;45.566;10.238;2023-04-23T00:51:52;8.20;;;5.55;;
79137;SDS011;68544;45.566;10.238;2023-04-23T00:54:18;9.43;;;6.50;;
79137;SDS011;68544;45.566;10.238;2023-04-23T00:56:43;8.03;;;6.90;;
79137;SDS011;68544;45.566;10.238;2023-04-23T00:59:08;7.97;;;6.70;;
79137;SDS011;68544;45.566;10.238;2023-04-23T01:01:34;7.20;;;6.60;;
79137;SDS011;68544;45.566;10.238;2023-04-23T01:03:59;7.57;;;6.77;;
79137;SDS011;68544;45.566;10.238;2023-04-23T01:06:25;7.35;;;6.63;;
79137;SDS011;68544;45.566;10.238;2023-04-23T01:08:52;7.95;;;7.00;;
79137;SDS011;68544;45.566;10.238;2023-04-23T01:11:18;7.93;;;7.05;;
79137;SDS011;68544;45.566;10.238;2023-04-23T01:13:44;7.82;;;6.70;;
79137;SDS011;68544;45.566;10.238;2023-04-23T01:16:09;8.03;;;6.87;;
79137;SDS011;68544;45.566;10.238;2023-04-23T01:18:35;8.52;;;6.90;;
79137;SDS011;68544;45.566;10.238;2023-04-23T01:21:02;8.40;;;7.45;;
79137;SDS011;68544;45.566;10.238;2023-04-23T01:25:53;6.47;;;5.70;;
79137;SDS011;68544;45.566;10.238;2023-04-23T01:28:19;6.80;;;6.13;;
79137;SDS011;68544;45.566;10.238;2023-04-23T01:33:11;6.25;;;5.30;;
79137;SDS011;68544;45.566;10.238;2023-04-23T01:38:04;7.70;;;6.88;;
79137;SDS011;68544;45.566;10.238;2023-04-23T01:40:33;7.40;;;6.30;;
79137;SDS011;68544;45.566;10.238;2023-04-23T01:42:58;10.87;;;6.70;;
79137;SDS011;68544;45.566;10.238;2023-04-23T01:45:24;7.95;;;6.75;;
79137;SDS011;68544;45.566;10.238;2023-04-23T01:47:50;7.03;;;6.10;;
79137;SDS011;68544;45.566;10.238;2023-04-23T01:50:15;6.47;;;5.88;;
79137;SDS011;68544;45.566;10.238;2023-04-23T01:52:41;6.80;;;5.30;;
79137;SDS011;68544;45.566;10.238;2023-04-23T01:55:08;6.90;;;5.53;;
79137;SDS011;68544;45.566;10.238;2023-04-23T01:57:34;6.77;;;5.83;;
79137;SDS011;68544;45.566;10.238;2023-04-23T02:00:02;6.50;;;5.90;;
79137;SDS011;68544;45.566;10.238;2023-04-23T02:02:35;6.47;;;5.57;;
79137;SDS011;68544;45.566;10.238;2023-04-23T02:05:02;7.55;;;5.10;;
79137;SDS011;68544;45.566;10.238;2023-04-23T02:09:55;7.10;;;5.50;;
79137;SDS011;68544;45.566;10.238;2023-04-23T02:12:20;6.97;;;5.43;;
79137;SDS011;68544;45.566;10.238;2023-04-23T02:14:45;5.97;;;5.30;;
79137;SDS011;68544;45.566;10.238;2023-04-23T02:17:11;7.53;;;6.47;;
79137;SDS011;68544;45.566;10.238;2023-04-23T02:19:36;7.17;;;6.47;;
79137;SDS011;68544;45.566;10.238;2023-04-23T02:22:01;8.43;;;7.07;;
79137;SDS011;68544;45.566;10.238;2023-04-23T02:24:27;9.63;;;7.20;;
79137;SDS011;68544;45.566;10.238;2023-04-23T02:26:52;8.67;;;7.53;;
79137;SDS011;68544;45.566;10.238;2023-04-23T02:29:17;10.00;;;8.10;;
79137;SDS011;68544;45.566;10.238;2023-04-23T02:31:43;9.77;;;7.80;;
79137;SDS011;68544;45.566;10.238;2023-04-23T02:34:08;8.50;;;7.67;;
79137;SDS011;68544;45.566;10.238;2023-04-23T02:36:33;8.07;;;7.27;;
79137;SDS011;68544;45.566;10.238;2023-04-23T02:38:59;12.50;;;7.82;;
79137;SDS011;68544;45.566;10.238;2023-04-23T02:41:24;8.30;;;7.40;;
79137;SDS011;68544;45.566;10.238;2023-04-23T02:43:50;10.43;;;8.27;;
79137;SDS011;68544;45.566;10.238;2023-04-23T02:46:15;9.10;;;7.83;;
79137;SDS011;68544;45.566;10.238;2023-04-23T02:48:40;11.40;;;8.13;;
79137;SDS011;68544;45.566;10.238;2023-04-23T02:51:07;10.43;;;7.70;;
79137;SDS011;68544;45.566;10.238;2023-04-23T02:53:33;7.97;;;7.18;;
79137;SDS011;68544;45.566;10.238;2023-04-23T02:55:59;12.20;;;7.87;;
79137;SDS011;68544;45.566;10.238;2023-04-23T03:00:50;10.15;;;8.00;;
79137;SDS011;68544;45.566;10.238;2023-04-23T03:03:16;9.03;;;7.90;;
79137;SDS011;68544;45.566;10.238;2023-04-23T03:05:41;8.90;;;7.33;;
79137;SDS011;68544;45.566;10.238;2023-04-23T03:08:06;8.27;;;7.20;;
79137;SDS011;68544;45.566;10.238;2023-04-23T03:10:32;10.90;;;7.83;;
79137;SDS011;68544;45.566;10.238;2023-04-23T03:12:57;9.87;;;7.77;;
79137;SDS011;68544;45.566;10.238;2023-04-23T03:15:22;8.43;;;7.50;;
79137;SDS011;68544;45.566;10.238;2023-04-23T03:17:51;8.68;;;7.72;;
79137;SDS011;68544;45.566;10.238;2023-04-23T03:20:17;8.50;;;7.70;;
79137;SDS011;68544;45.566;10.238;2023-04-23T03:22:43;8.00;;;7.03;;
79137;SDS011;68544;45.566;10.238;2023-04-23T03:25:09;7.93;;;6.13;;
79137;SDS011;68544;45.566;10.238;2023-04-23T03:27:35;9.87;;;6.73;;
79137;SDS011;68544;45.566;10.238;2023-04-23T03:30:00;10.93;;;7.50;;
79137;SDS011;68544;45.566;10.238;2023-04-23T03:32:25;8.43;;;6.97;;
79137;SDS011;68544;45.566;10.238;2023-04-23T03:34:51;11.10;;;7.30;;
79137;SDS011;68544;45.566;10.238;2023-04-23T03:37:16;10.03;;;7.87;;
79137;SDS011;68544;45.566;10.238;2023-04-23T03:39:41;11.37;;;8.57;;
79137;SDS011;68544;45.566;10.238;2023-04-23T03:42:07;12.43;;;7.73;;
79137;SDS011;68544;45.566;10.238;2023-04-23T03:44:32;9.57;;;7.83;;
79137;SDS011;68544;45.566;10.238;2023-04-23T03:46:57;10.03;;;8.10;;
79137;SDS011;68544;45.566;10.238;2023-04-23T03:49:24;11.00;;;9.63;;
79137;SDS011;68544;45.566;10.238;2023-04-23T03:51:50;13.13;;;9.00;;
79137;SDS011;68544;45.566;10.238;2023-04-23T03:54:16;13.20;;;9.10;;
79137;SDS011;68544;45.566;10.238;2023-04-23T03:59:07;12.87;;;9.03;;
79137;SDS011;68544;45.566;10.238;2023-04-23T04:01:33;11.23;;;9.02;;
79137;SDS011;68544;45.566;10.238;2023-04-23T04:04:00;11.70;;;9.48;;
79137;SDS011;68544;45.566;10.238;2023-04-23T04:06:25;12.30;;;9.77;;
79137;SDS011;68544;45.566;10.238;2023-04-23T04:08:51;9.63;;;8.63;;
79137;SDS011;68544;45.566;10.238;2023-04-23T04:11:16;11.20;;;9.43;;
79137;SDS011;68544;45.566;10.238;2023-04-23T04:13:41;13.47;;;9.80;;
79137;SDS011;68544;45.566;10.238;2023-04-23T04:16:06;11.40;;;9.03;;
79137;SDS011;68544;45.566;10.238;2023-04-23T04:18:32;13.57;;;9.20;;
79137;SDS011;68544;45.566;10.238;2023-04-23T04:20:57;9.90;;;8.10;;
79137;SDS011;68544;45.566;10.238;2023-04-23T04:23:23;11.07;;;8.77;;
79137;SDS011;68544;45.566;10.238;2023-04-23T04:25:48;12.87;;;9.20;;
79137;SDS011;68544;45.566;10.238;2023-04-23T04:28:15;9.52;;;8.57;;
79137;SDS011;68544;45.566;10.238;2023-04-23T04:30:40;11.15;;;9.35;;
79137;SDS011;68544;45.566;10.238;2023-04-23T04:33:06;10.30;;;8.60;;
79137;SDS011;68544;45.566;10.238;2023-04-23T04:37:58;11.23;;;8.63;;
79137;SDS011;68544;45.566;10.238;2023-04-23T04:40:23;9.93;;;8.20;;
79137;SDS011;68544;45.566;10.238;2023-04-23T04:42:50;11.10;;;9.02;;
79137;SDS011;68544;45.566;10.238;2023-04-23T04:47:42;11.80;;;8.55;;
79137;SDS011;68544;45.566;10.238;2023-04-23T04:50:07;9.73;;;8.37;;
79137;SDS011;68544;45.566;10.238;2023-04-23T04:52:32;11.27;;;8.90;;
79137;SDS011;68544;45.566;10.238;2023-04-23T04:54:58;10.93;;;9.40;;
79137;SDS011;68544;45.566;10.238;2023-04-23T04:57:23;11.55;;;9.63;;
79137;SDS011;68544;45.566;10.238;2023-04-23T04:59:49;11.93;;;9.87;;
79137;SDS011;68544;45.566;10.238;2023-04-23T05:02:14;10.60;;;9.47;;
79137;SDS011;68544;45.566;10.238;2023-04-23T05:04:40;11.70;;;9.15;;
79137;SDS011;68544;45.566;10.238;2023-04-23T05:07:05;12.30;;;10.03;;
79137;SDS011;68544;45.566;10.238;2023-04-23T05:09:31;12.83;;;9.73;;
79137;SDS011;68544;45.566;10.238;2023-04-23T05:11:56;10.13;;;8.83;;
79137;SDS011;68544;45.566;10.238;2023-04-23T05:14:21;13.90;;;9.20;;
79137;SDS011;68544;45.566;10.238;2023-04-23T05:16:47;9.90;;;8.90;;
79137;SDS011;68544;45.566;10.238;2023-04-23T05:19:12;12.93;;;10.37;;
79137;SDS011;68544;45.566;10.238;2023-04-23T05:21:38;10.90;;;9.43;;
79137;SDS011;68544;45.566;10.238;2023-04-23T05:24:03;10.00;;;8.90;;
79137;SDS011;68544;45.566;10.238;2023-04-23T05:26:29;11.40;;;9.10;;
79137;SDS011;68544;45.566;10.238;2023-04-23T05:28:54;9.90;;;8.93;;
79137;SDS011;68544;45.566;10.238;2023-04-23T05:31:19;10.20;;;9.10;;
79137;SDS011;68544;45.566;10.238;2023-04-23T05:33:45;11.60;;;9.30;;
79137;SDS011;68544;45.566;10.238;2023-04-23T05:36:11;10.60;;;8.63;;
79137;SDS011;68544;45.566;10.238;2023-04-23T05:38:37;10.37;;;8.83;;
79137;SDS011;68544;45.566;10.238;2023-04-23T05:41:02;10.60;;;8.55;;
79137;SDS011;68544;45.566;10.238;2023-04-23T05:43:28;9.23;;;8.30;;
79137;SDS011;68544;45.566;10.238;2023-04-23T05:45:53;9.83;;;8.83;;
79137;SDS011;68544;45.566;10.238;2023-04-23T05:48:19;9.33;;;8.23;;
79137;SDS011;68544;45.566;10.238;2023-04-23T05:50:44;11.73;;;8.97;;
79137;SDS011;68544;45.566;10.238;2023-04-23T05:53:09;11.53;;;8.07;;
79137;SDS011;68544;45.566;10.238;2023-04-23T05:55:35;11.13;;;8.60;;
79137;SDS011;68544;45.566;10.238;2023-04-23T05:58:00;9.37;;;8.47;;
79137;SDS011;68544;45.566;10.238;2023-04-23T06:00:26;9.65;;;8.75;;
79137;SDS011;68544;45.566;10.238;2023-04-23T06:02:52;10.32;;;8.82;;
79137;SDS011;68544;45.566;10.238;2023-04-23T06:05:17;11.47;;;9.13;;
79137;SDS011;68544;45.566;10.238;2023-04-23T06:07:42;10.80;;;9.17;;
79137;SDS011;68544;45.566;10.238;2023-04-23T06:10:08;10.77;;;9.67;;
79137;SDS011;68544;45.566;10.238;2023-04-23T06:12:33;12.55;;;9.75;;
79137;SDS011;68544;45.566;10.238;2023-04-23T06:15:03;10.93;;;9.10;;
79137;SDS011;68544;45.566;10.238;2023-04-23T06:17:30;12.02;;;9.82;;
79137;SDS011;68544;45.566;10.238;2023-04-23T06:19:55;10.93;;;9.03;;
79137;SDS011;68544;45.566;10.238;2023-04-23T06:22:20;12.87;;;9.87;;
79137;SDS011;68544;45.566;10.238;2023-04-23T06:24:45;11.30;;;8.87;;
79137;SDS011;68544;45.566;10.238;2023-04-23T06:27:11;9.50;;;8.60;;
79137;SDS011;68544;45.566;10.238;2023-04-23T06:29:37;11.13;;;9.13;;
79137;SDS011;68544;45.566;10.238;2023-04-23T06:32:02;9.93;;;8.83;;
79137;SDS011;68544;45.566;10.238;2023-04-23T06:34:29;11.48;;;9.18;;
79137;SDS011;68544;45.566;10.238;2023-04-23T06:36:54;10.03;;;7.97;;
79137;SDS011;68544;45.566;10.238;2023-04-23T06:39:19;11.30;;;8.60;;
79137;SDS011;68544;45.566;10.238;2023-04-23T06:41:45;9.32;;;7.82;;
79137;SDS011;68544;45.566;10.238;2023-04-23T06:44:10;10.73;;;9.00;;
79137;SDS011;68544;45.566;10.238;2023-04-23T06:46:36;9.07;;;8.17;;
79137;SDS011;68544;45.566;10.238;2023-04-23T06:49:01;9.03;;;8.17;;
79137;SDS011;68544;45.566;10.238;2023-04-23T06:51:26;9.97;;;7.87;;
79137;SDS011;68544;45.566;10.238;2023-04-23T06:53:52;9.33;;;7.93;;
79137;SDS011;68544;45.566;10.238;2023-04-23T06:56:18;9.32;;;7.97;;
79137;SDS011;68544;45.566;10.238;2023-04-23T06:58:45;8.68;;;7.78;;
79137;SDS011;68544;45.566;10.238;2023-04-23T07:01:10;9.53;;;8.30;;
79137;SDS011;68544;45.566;10.238;2023-04-23T07:03:36;9.67;;;8.63;;
79137;SDS011;68544;45.566;10.238;2023-04-23T07:06:01;10.90;;;8.03;;
79137;SDS011;68544;45.566;10.238;2023-04-23T07:08:27;11.02;;;7.90;;
79137;SDS011;68544;45.566;10.238;2023-04-23T07:10:52;9.30;;;8.40;;
79137;SDS011;68544;45.566;10.238;2023-04-23T07:13:18;11.57;;;8.03;;
79137;SDS011;68544;45.566;10.238;2023-04-23T07:15:43;12.30;;;8.30;;
79137;SDS011;68544;45.566;10.238;2023-04-23T07:18:08;8.77;;;7.53;;
79137;SDS011;68544;45.566;10.238;2023-04-23T07:20:34;9.50;;;8.13;;
79137;SDS011;68544;45.566;10.238;2023-04-23T07:23:00;10.07;;;7.75;;
79137;SDS011;68544;45.566;10.238;2023-04-23T07:25:27;8.13;;;6.95;;
79137;SDS011;68544;45.566;10.238;2023-04-23T07:27:53;8.87;;;7.43;;
79137;SDS011;68544;45.566;10.238;2023-04-23T07:30:18;8.63;;;7.30;;
79137;SDS011;68544;45.566;10.238;2023-04-23T07:32:44;9.57;;;7.13;;
79137;SDS011;68544;45.566;10.238;2023-04-23T07:35:10;8.43;;;7.30;;
79137;SDS011;68544;45.566;10.238;2023-04-23T07:37:36;8.05;;;7.25;;
79137;SDS011;68544;45.566;10.238;2023-04-23T07:40:02;8.48;;;7.57;;
79137;SDS011;68544;45.566;10.238;2023-04-23T07:42:29;10.15;;;8.88;;
79137;SDS011;68544;45.566;10.238;2023-04-23T07:44:54;10.65;;;9.50;;
79137;SDS011;68544;45.566;10.238;2023-04-23T07:47:20;9.67;;;8.33;;
79137;SDS011;68544;45.566;10.238;2023-04-23T07:49:45;15.43;;;12.43;;
79137;SDS011;68544;45.566;10.238;2023-04-23T07:52:10;13.68;;;12.38;;
79137;SDS011;68544;45.566;10.238;2023-04-23T07:54:36;13.85;;;12.43;;
79137;SDS011;68544;45.566;10.238;2023-04-23T07:59:27;14.60;;;12.52;;
79137;SDS011;68544;45.566;10.238;2023-04-23T08:04:18;13.77;;;12.33;;
79137;SDS011;68544;45.566;10.238;2023-04-23T08:09:08;18.70;;;16.90;;
79137;SDS011;68544;45.566;10.238;2023-04-23T08:11:34;20.58;;;16.83;;
79137;SDS011;68544;45.566;10.238;2023-04-23T08:13:59;19.77;;;17.73;;
79137;SDS011;68544;45.566;10.238;2023-04-23T08:18:50;20.90;;;19.00;;
79137;SDS011;68544;45.566;10.238;2023-04-23T08:21:16;20.05;;;17.95;;
79137;SDS011;68544;45.566;10.238;2023-04-23T08:23:41;19.80;;;17.88;;
79137;SDS011;68544;45.566;10.238;2023-04-23T08:26:06;19.33;;;17.52;;
79137;SDS011;68544;45.566;10.238;2023-04-23T08:28:32;19.15;;;17.45;;
79137;SDS011;68544;45.566;10.238;2023-04-23T08:30:57;20.75;;;18.63;;
79137;SDS011;68544;45.566;10.238;2023-04-23T08:33:22;20.08;;;18.10;;
79137;SDS011;68544;45.566;10.238;2023-04-23T08:35:48;20.27;;;18.27;;
79137;SDS011;68544;45.566;10.238;2023-04-23T08:38:13;21.17;;;19.17;;
79137;SDS011;68544;45.566;10.238;2023-04-23T08:40:40;22.20;;;19.85;;
79137;SDS011;68544;45.566;10.238;2023-04-23T08:43:12;22.70;;;20.42;;
79137;SDS011;68544;45.566;10.238;2023-04-23T08:45:45;23.50;;;21.30;;
79137;SDS011;68544;45.566;10.238;2023-04-23T08:48:12;22.23;;;20.02;;
79137;SDS011;68544;45.566;10.238;2023-04-23T08:50:38;24.88;;;22.52;;
79137;SDS011;68544;45.566;10.238;2023-04-23T08:53:06;26.95;;;24.25;;
79137;SDS011;68544;45.566;10.238;2023-04-23T08:55:32;26.35;;;23.98;;
79137;SDS011;68544;45.566;10.238;2023-04-23T08:57:59;26.50;;;24.05;;
79137;SDS011;68544;45.566;10.238;2023-04-23T09:00:25;26.17;;;23.77;;
79137;SDS011;68544;45.566;10.238;2023-04-23T09:02:51;25.08;;;22.80;;
79137;SDS011;68544;45.566;10.238;2023-04-23T09:05:16;26.77;;;24.45;;
79137;SDS011;68544;45.566;10.238;2023-04-23T09:07:42;26.08;;;23.73;;
79137;SDS011;68544;45.566;10.238;2023-04-23T09:10:08;26.05;;;23.75;;
79137;SDS011;68544;45.566;10.238;2023-04-23T09:12:36;26.17;;;23.77;;
79137;SDS011;68544;45.566;10.238;2023-04-23T09:15:06;25.48;;;23.17;;
79137;SDS011;68544;45.566;10.238;2023-04-23T09:17:43;25.33;;;22.70;;
79137;SDS011;68544;45.566;10.238;2023-04-23T09:20:10;24.63;;;22.42;;
79137;SDS011;68544;45.566;10.238;2023-04-23T09:22:40;24.70;;;22.30;;
79137;SDS011;68544;45.566;10.238;2023-04-23T09:25:09;23.55;;;21.40;;
79137;SDS011;68544;45.566;10.238;2023-04-23T09:27:36;24.88;;;22.48;;
79137;SDS011;68544;45.566;10.238;2023-04-23T09:30:08;22.48;;;20.48;;
79137;SDS011;68544;45.566;10.238;2023-04-23T09:32:35;24.13;;;21.80;;
79137;SDS011;68544;45.566;10.238;2023-04-23T09:35:03;22.15;;;20.25;;
79137;SDS011;68544;45.566;10.238;2023-04-23T09:37:29;21.30;;;19.50;;
79137;SDS011;68544;45.566;10.238;2023-04-23T09:40:02;22.10;;;20.27;;
79137;SDS011;68544;45.566;10.238;2023-04-23T09:42:33;20.42;;;18.52;;
79137;SDS011;68544;45.566;10.238;2023-04-23T09:45:02;20.88;;;18.98;;
79137;SDS011;68544;45.566;10.238;2023-04-23T09:47:39;21.55;;;19.52;;
79137;SDS011;68544;45.566;10.238;2023-04-23T09:50:06;19.80;;;17.98;;
79137;SDS011;68544;45.566;10.238;2023-04-23T09:52:37;19.23;;;17.60;;
79137;SDS011;68544;45.566;10.238;2023-04-23T09:55:02;19.52;;;17.70;;
79137;SDS011;68544;45.566;10.238;2023-04-23T09:57:29;19.35;;;17.73;;
79137;SDS011;68544;45.566;10.238;2023-04-23T09:59:55;19.65;;;17.77;;
79137;SDS011;68544;45.566;10.238;2023-04-23T10:02:25;19.05;;;17.45;;
79137;SDS011;68544;45.566;10.238;2023-04-23T10:04:53;17.27;;;15.68;;
79137;SDS011;68544;45.566;10.238;2023-04-23T10:07:18;17.17;;;15.50;;
79137;SDS011;68544;45.566;10.238;2023-04-23T10:09:44;17.75;;;16.05;;
79137;SDS011;68544;45.566;10.238;2023-04-23T10:12:09;17.50;;;16.05;;
79137;SDS011;68544;45.566;10.238;2023-04-23T10:14:35;17.35;;;15.73;;
79137;SDS011;68544;45.566;10.238;2023-04-23T10:17:02;17.80;;;16.20;;
79137;SDS011;68544;45.566;10.238;2023-04-23T10:19:29;17.63;;;16.08;;
79137;SDS011;68544;45.566;10.238;2023-04-23T10:21:56;17.60;;;16.05;;
79137;SDS011;68544;45.566;10.238;2023-04-23T10:24:33;17.05;;;15.55;;
79137;SDS011;68544;45.566;10.238;2023-04-23T10:27:02;15.93;;;14.45;;
79137;SDS011;68544;45.566;10.238;2023-04-23T10:29:30;14.10;;;12.73;;
79137;SDS011;68544;45.566;10.238;2023-04-23T10:31:57;13.60;;;12.48;;
79137;SDS011;68544;45.566;10.238;2023-04-23T10:34:25;16.13;;;14.57;;
79137;SDS011;68544;45.566;10.238;2023-04-23T10:36:51;16.00;;;14.50;;
79137;SDS011;68544;45.566;10.238;2023-04-23T10:39:19;16.40;;;15.00;;
79137;SDS011;68544;45.566;10.238;2023-04-23T10:41:46;13.98;;;12.68;;
79137;SDS011;68544;45.566;10.238;2023-04-23T10:44:12;12.57;;;11.38;;
79137;SDS011;68544;45.566;10.238;2023-04-23T10:46:46;12.52;;;11.43;;
79137;SDS011;68544;45.566;10.238;2023-04-23T10:49:16;11.45;;;10.48;;
79137;SDS011;68544;45.566;10.238;2023-04-23T10:51:41;10.75;;;9.70;;
79137;SDS011;68544;45.566;10.238;2023-04-23T10:54:12;10.10;;;9.07;;
79137;SDS011;68544;45.566;10.238;2023-04-23T10:56:39;9.98;;;9.13;;
79137;SDS011;68544;45.566;10.238;2023-04-23T10:59:26;10.18;;;9.25;;
79137;SDS011;68544;45.566;10.238;2023-04-23T11:01:53;11.18;;;10.10;;
79137;SDS011;68544;45.566;10.238;2023-04-23T11:04:23;10.18;;;9.18;;
79137;SDS011;68544;45.566;10.238;2023-04-23T11:07:06;10.95;;;9.95;;
79137;SDS011;68544;45.566;10.238;2023-04-23T11:14:40;10.05;;;9.07;;
79137;SDS011;68544;45.566;10.238;2023-04-23T11:17:12;10.38;;;9.38;;
79137;SDS011;68544;45.566;10.238;2023-04-23T11:19:40;10.57;;;9.57;;
79137;SDS011;68544;45.566;10.238;2023-04-23T11:22:13;9.32;;;8.50;;
79137;SDS011;68544;45.566;10.238;2023-04-23T11:24:41;10.23;;;8.27;;
79137;SDS011;68544;45.566;10.238;2023-04-23T11:27:15;6.28;;;4.75;;
79137;SDS011;68544;45.566;10.238;2023-04-23T11:29:42;9.02;;;7.55;;
79137;SDS011;68544;45.566;10.238;2023-04-23T11:32:09;9.35;;;7.55;;
79137;SDS011;68544;45.566;10.238;2023-04-23T11:34:40;9.27;;;7.68;;
79137;SDS011;68544;45.566;10.238;2023-04-23T11:37:11;10.05;;;8.88;;
79137;SDS011;68544;45.566;10.238;2023-04-23T11:39:38;8.40;;;7.70;;
79137;SDS011;68544;45.566;10.238;2023-04-23T11:42:11;9.02;;;8.13;;
79137;SDS011;68544;45.566;10.238;2023-04-23T11:44:40;8.80;;;7.00;;
79137;SDS011;68544;45.566;10.238;2023-04-23T11:47:07;7.07;;;6.28;;
79137;SDS011;68544;45.566;10.238;2023-04-23T11:49:35;7.45;;;5.70;;
79137;SDS011;68544;45.566;10.238;2023-04-23T11:52:02;9.00;;;7.82;;
79137;SDS011;68544;45.566;10.238;2023-04-23T11:54:27;9.88;;;8.98;;
79137;SDS011;68544;45.566;10.238;2023-04-23T11:56:53;11.48;;;9.45;;
79137;SDS011;68544;45.566;10.238;2023-04-23T11:59:19;9.57;;;8.57;;
79137;SDS011;68544;45.566;10.238;2023-04-23T12:01:46;9.10;;;7.20;;
79137;SDS011;68544;45.566;10.238;2023-04-23T12:04:13;9.50;;;7.20;;
79137;SDS011;68544;45.566;10.238;2023-04-23T12:06:41;11.15;;;6.85;;
79137;SDS011;68544;45.566;10.238;2023-04-23T12:09:08;7.90;;;5.15;;
79137;SDS011;68544;45.566;10.238;2023-04-23T12:11:34;6.65;;;4.88;;
79137;SDS011;68544;45.566;10.238;2023-04-23T12:14:00;5.22;;;4.65;;
79137;SDS011;68544;45.566;10.238;2023-04-23T12:16:41;5.45;;;4.68;;
79137;SDS011;68544;45.566;10.238;2023-04-23T12:19:14;5.25;;;4.70;;
79137;SDS011;68544;45.566;10.238;2023-04-23T12:21:46;7.82;;;5.93;;
79137;SDS011;68544;45.566;10.238;2023-04-23T12:24:15;7.80;;;4.73;;
79137;SDS011;68544;45.566;10.238;2023-04-23T12:26:41;6.78;;;4.22;;
79137;SDS011;68544;45.566;10.238;2023-04-23T12:29:11;7.68;;;3.92;;
79137;SDS011;68544;45.566;10.238;2023-04-23T12:31:37;5.50;;;4.28;;
79137;SDS011;68544;45.566;10.238;2023-04-23T12:34:04;8.23;;;5.28;;
79137;SDS011;68544;45.566;10.238;2023-04-23T12:36:31;6.85;;;5.03;;
79137;SDS011;68544;45.566;10.238;2023-04-23T12:39:19;5.88;;;4.20;;
79137;SDS011;68544;45.566;10.238;2023-04-23T12:41:54;7.90;;;4.22;;
79137;SDS011;68544;45.566;10.238;2023-04-23T12:44:24;6.15;;;3.75;;
79137;SDS011;68544;45.566;10.238;2023-04-23T12:46:54;8.73;;;3.90;;
79137;SDS011;68544;45.566;10.238;2023-04-23T12:49:24;8.18;;;4.72;;
79137;SDS011;68544;45.566;10.238;2023-04-23T12:51:51;5.63;;;4.28;;
79137;SDS011;68544;45.566;10.238;2023-04-23T12:54:17;7.97;;;4.35;;
79137;SDS011;68544;45.566;10.238;2023-04-23T12:56:42;6.15;;;4.03;;
79137;SDS011;68544;45.566;10.238;2023-04-23T12:59:08;4.65;;;3.20;;
79137;SDS011;68544;45.566;10.238;2023-04-23T13:01:33;5.22;;;3.65;;
79137;SDS011;68544;45.566;10.238;2023-04-23T13:03:58;6.72;;;3.35;;
79137;SDS011;68544;45.566;10.238;2023-04-23T13:06:24;5.13;;;3.83;;
79137;SDS011;68544;45.566;10.238;2023-04-23T13:08:50;6.80;;;4.13;;
79137;SDS011;68544;45.566;10.238;2023-04-23T13:11:15;7.22;;;5.32;;
79137;SDS011;68544;45.566;10.238;2023-04-23T13:13:41;8.43;;;6.03;;
79137;SDS011;68544;45.566;10.238;2023-04-23T13:16:06;7.22;;;5.22;;
79137;SDS011;68544;45.566;10.238;2023-04-23T13:18:31;6.85;;;5.30;;
79137;SDS011;68544;45.566;10.238;2023-04-23T13:20:57;8.63;;;5.25;;
79137;SDS011;68544;45.566;10.238;2023-04-23T13:23:22;7.93;;;6.13;;
79137;SDS011;68544;45.566;10.238;2023-04-23T13:25:48;6.95;;;5.25;;
79137;SDS011;68544;45.566;10.238;2023-04-23T13:28:14;5.97;;;5.18;;
79137;SDS011;68544;45.566;10.238;2023-04-23T13:30:39;7.85;;;5.03;;
79137;SDS011;68544;45.566;10.238;2023-04-23T13:33:05;6.57;;;5.40;;
79137;SDS011;68544;45.566;10.238;2023-04-23T13:37:55;6.37;;;5.43;;
79137;SDS011;68544;45.566;10.238;2023-04-23T13:42:46;7.28;;;4.93;;
79137;SDS011;68544;45.566;10.238;2023-04-23T13:45:13;6.03;;;4.43;;
79137;SDS011;68544;45.566;10.238;2023-04-23T13:50:04;5.95;;;4.88;;
79137;SDS011;68544;45.566;10.238;2023-04-23T13:52:34;5.50;;;4.25;;
79137;SDS011;68544;45.566;10.238;2023-04-23T13:55:01;8.23;;;4.78;;
79137;SDS011;68544;45.566;10.238;2023-04-23T13:57:27;6.32;;;4.45;;
79137;SDS011;68544;45.566;10.238;2023-04-23T14:02:22;7.03;;;5.35;;
79137;SDS011;68544;45.566;10.238;2023-04-23T14:07:13;10.00;;;5.10;;
79137;SDS011;68544;45.566;10.238;2023-04-23T14:12:03;8.20;;;5.37;;
79137;SDS011;68544;45.566;10.238;2023-04-23T14:16:54;5.78;;;4.72;;
79137;SDS011;68544;45.566;10.238;2023-04-23T14:21:45;8.60;;;4.90;;
79137;SDS011;68544;45.566;10.238;2023-04-23T14:26:59;6.88;;;4.72;;
79137;SDS011;68544;45.566;10.238;2023-04-23T14:29:29;6.00;;;4.20;;
79137;SDS011;68544;45.566;10.238;2023-04-23T14:31:59;5.78;;;4.32;;
79137;SDS011;68544;45.566;10.238;2023-04-23T14:36:51;9.40;;;5.97;;
79137;SDS011;68544;45.566;10.238;2023-04-23T14:41:42;8.75;;;6.18;;
79137;SDS011;68544;45.566;10.238;2023-04-23T14:46:32;9.47;;;5.77;;
79137;SDS011;68544;45.566;10.238;2023-04-23T14:51:23;7.13;;;5.43;;
79137;SDS011;68544;45.566;10.238;2023-04-23T14:56:15;6.28;;;5.03;;
79137;SDS011;68544;45.566;10.238;2023-04-23T14:58:40;8.63;;;5.50;;
79137;SDS011;68544;45.566;10.238;2023-04-23T15:03:31;7.18;;;5.15;;
79137;SDS011;68544;45.566;10.238;2023-04-23T15:08:22;7.00;;;5.20;;
79137;SDS011;68544;45.566;10.238;2023-04-23T15:18:06;8.13;;;5.35;;
79137;SDS011;68544;45.566;10.238;2023-04-23T15:22:57;10.20;;;5.25;;
79137;SDS011;68544;45.566;10.238;2023-04-23T15:27:49;11.07;;;5.97;;
79137;SDS011;68544;45.566;10.238;2023-04-23T15:30:21;6.13;;;5.43;;
79137;SDS011;68544;45.566;10.238;2023-04-23T15:35:11;6.38;;;4.80;;
79137;SDS011;68544;45.566;10.238;2023-04-23T15:40:02;8.07;;;5.60;;
79137;SDS011;68544;45.566;10.238;2023-04-23T15:42:27;8.30;;;4.95;;
79137;SDS011;68544;45.566;10.238;2023-04-23T15:47:21;9.13;;;6.07;;
79137;SDS011;68544;45.566;10.238;2023-04-23T15:52:12;6.88;;;5.07;;
79137;SDS011;68544;45.566;10.238;2023-04-23T15:57:03;8.00;;;5.03;;
79137;SDS011;68544;45.566;10.238;2023-04-23T15:59:29;8.20;;;4.55;;
79137;SDS011;68544;45.566;10.238;2023-04-23T16:04:19;9.17;;;5.10;;